Time;durP1;ratioP1;P1;durP2;ratioP2;P2;SDS_P1;SDS_P2;PMS_P1;PMS_P2;Temp;Humidity;BMP_temperature;BMP_pressure;BME280_temperature;BME280_humidity;BME280_pressure;Samples;Min_cycle;Max_cycle;Signal;HPM_P1;HPM_P2
2023/01/07 00:01:31;;;;;;;5.60;4.30;;;17.60;65.90;;;;;;4989372;28;20473;-76
2023/01/07 00:03:59;;;;;;;8.27;5.17;;;17.60;65.90;;;;;;4989933;28;20449;-75
2023/01/07 00:06:28;;;;;;;7.60;5.57;;;17.60;66.00;;;;;;4988800;28;20489;-76
2023/01/07 00:08:56;;;;;;;5.53;4.60;;;17.60;66.30;;;;;;4989018;28;20460;-76
2023/01/07 00:11:25;;;;;;;7.50;5.57;;;17.60;66.20;;;;;;4989988;28;20485;-76
2023/01/07 00:13:53;;;;;;;7.43;4.87;;;17.60;66.30;;;;;;4993966;28;20457;-76
2023/01/07 00:16:24;;;;;;;8.90;6.07;;;17.60;66.30;;;;;;4986379;28;20454;-76
2023/01/07 00:18:53;;;;;;;6.37;5.00;;;17.60;66.20;;;;;;4986244;28;20970;-76
2023/01/07 00:21:21;;;;;;;8.20;5.83;;;17.60;66.30;;;;;;4990027;28;20465;-77
2023/01/07 00:23:49;;;;;;;6.40;4.90;;;17.60;66.30;;;;;;4992199;28;20475;-77
2023/01/07 00:26:19;;;;;;;7.53;5.10;;;17.60;66.40;;;;;;4988207;28;20476;-76
2023/01/07 00:28:48;;;;;;;7.87;5.23;;;17.60;66.40;;;;;;4987983;28;20468;-76
2023/01/07 00:31:17;;;;;;;6.20;5.13;;;17.60;66.40;;;;;;4986670;28;20546;-76
2023/01/07 00:33:50;;;;;;;6.90;5.80;;;17.60;66.50;;;;;;4989010;28;20537;-76
2023/01/07 00:36:19;;;;;;;7.20;5.20;;;17.60;66.70;;;;;;4994353;28;20452;-76
2023/01/07 00:38:46;;;;;;;5.23;4.73;;;17.60;66.60;;;;;;4992532;28;20459;-76
2023/01/07 00:41:15;;;;;;;6.00;5.13;;;17.60;66.70;;;;;;4997917;28;20496;-76
2023/01/07 00:43:43;;;;;;;8.50;5.67;;;17.60;66.70;;;;;;4992263;28;20449;-76
2023/01/07 00:46:10;;;;;;;7.07;5.10;;;17.60;66.70;;;;;;4990297;28;20480;-76
2023/01/07 00:48:38;;;;;;;6.30;5.13;;;17.60;66.70;;;;;;4999829;28;20808;-76
2023/01/07 00:51:09;;;;;;;5.20;4.70;;;17.60;66.90;;;;;;4998496;28;20477;-76
2023/01/07 00:53:36;;;;;;;7.43;5.67;;;17.60;66.80;;;;;;4993014;28;20441;-76
2023/01/07 00:56:04;;;;;;;8.27;5.97;;;17.60;66.80;;;;;;4994855;28;20449;-76
2023/01/07 00:58:32;;;;;;;6.50;5.40;;;17.60;66.90;;;;;;4995344;28;20437;-76
2023/01/07 01:01:01;;;;;;;5.93;5.07;;;17.60;67.10;;;;;;4994448;28;20465;-76
2023/01/07 01:03:29;;;;;;;6.53;4.97;;;17.60;66.90;;;;;;4993291;28;20449;-76
2023/01/07 01:06:01;;;;;;;6.77;5.13;;;17.70;67.10;;;;;;4989700;28;20485;-77
2023/01/07 01:08:31;;;;;;;5.93;4.87;;;17.60;67.70;;;;;;4990208;28;20472;-77
2023/01/07 01:11:02;;;;;;;5.87;4.83;;;17.70;67.30;;;;;;4991183;28;20477;-76
2023/01/07 01:13:30;;;;;;;7.23;5.50;;;17.70;67.10;;;;;;4990202;28;20449;-77
2023/01/07 01:15:58;;;;;;;7.80;5.30;;;17.60;67.10;;;;;;4976437;28;20457;-76
2023/01/07 01:18:26;;;;;;;10.27;5.80;;;17.60;67.50;;;;;;4975695;28;20450;-76
2023/01/07 01:20:54;;;;;;;10.50;5.53;;;17.70;67.40;;;;;;4992200;28;20495;-76
2023/01/07 01:23:22;;;;;;;7.23;5.73;;;17.70;67.50;;;;;;4992085;28;20474;-76
2023/01/07 01:25:51;;;;;;;5.10;4.40;;;17.70;67.50;;;;;;4994269;28;20476;-76
2023/01/07 01:28:19;;;;;;;5.40;4.90;;;17.70;67.40;;;;;;5004566;28;20444;-76
2023/01/07 01:30:54;;;;;;;6.40;4.73;;;17.70;67.70;;;;;;5013460;28;20467;-77
2023/01/07 01:33:21;;;;;;;6.20;5.60;;;17.70;67.70;;;;;;4996804;28;20440;-77
2023/01/07 01:35:49;;;;;;;5.93;5.43;;;17.70;67.80;;;;;;4990697;28;20449;-76
2023/01/07 01:38:17;;;;;;;6.40;5.07;;;17.70;68.00;;;;;;4993328;28;20469;-77
2023/01/07 01:40:45;;;;;;;6.10;5.07;;;17.70;67.90;;;;;;4993821;28;20469;-76
2023/01/07 01:43:29;;;;;;;9.60;5.83;;;17.70;67.90;;;;;;4992166;28;20492;-77
2023/01/07 01:45:57;;;;;;;6.30;4.97;;;17.70;67.90;;;;;;4989801;28;20444;-78
2023/01/07 01:48:25;;;;;;;7.30;5.17;;;17.70;68.00;;;;;;4989831;28;20484;-77
2023/01/07 01:50:53;;;;;;;8.00;4.70;;;17.70;68.10;;;;;;4993506;28;20464;-77
2023/01/07 01:53:22;;;;;;;7.20;5.50;;;17.70;68.20;;;;;;4991105;28;20531;-77
2023/01/07 01:55:53;;;;;;;6.20;5.40;;;17.70;68.30;;;;;;4990097;28;20434;-77
2023/01/07 01:58:23;;;;;;;5.63;5.03;;;17.80;68.30;;;;;;4993069;28;20449;-77
2023/01/07 02:00:52;;;;;;;5.73;5.13;;;17.70;68.30;;;;;;4988591;28;20481;-76
2023/01/07 02:03:20;;;;;;;6.50;5.13;;;17.70;68.40;;;;;;4993507;28;20433;-76
2023/01/07 02:05:48;;;;;;;5.67;5.10;;;17.80;68.20;;;;;;4993837;28;20480;-76
2023/01/07 02:08:20;;;;;;;5.70;5.10;;;17.80;68.70;;;;;;4993822;28;20497;-76
2023/01/07 02:10:49;;;;;;;5.57;5.07;;;17.80;68.50;;;;;;5003280;28;20511;-76
2023/01/07 02:13:25;;;;;;;5.37;4.97;;;17.80;68.50;;;;;;4993719;28;20456;-77
2023/01/07 02:15:59;;;;;;;5.53;5.03;;;17.80;68.40;;;;;;4993791;28;20433;-76
2023/01/07 02:18:40;;;;;;;5.73;5.20;;;17.80;68.60;;;;;;4989063;28;20450;-77
2023/01/07 02:21:16;;;;;;;5.97;4.97;;;17.80;68.70;;;;;;4989373;28;20500;-78
2023/01/07 02:24:21;;;;;;;4.93;4.53;;;17.80;68.60;;;;;;4989801;28;20479;-77
2023/01/07 02:27:15;;;;;;;5.50;5.00;;;17.80;68.70;;;;;;4990141;28;20480;-76
2023/01/07 02:30:19;;;;;;;5.50;5.00;;;17.80;68.80;;;;;;4987008;28;20454;-78
2023/01/07 02:33:10;;;;;;;5.47;4.97;;;17.80;69.00;;;;;;4986168;28;20448;-76
2023/01/07 02:36:01;;;;;;;5.10;4.70;;;17.80;69.10;;;;;;4985544;28;20465;-76
2023/01/07 02:38:33;;;;;;;5.63;5.03;;;17.80;69.00;;;;;;4991865;28;20503;-77
2023/01/07 02:41:06;;;;;;;5.90;5.00;;;17.80;69.20;;;;;;4991449;28;20472;-76
2023/01/07 02:43:37;;;;;;;4.50;4.13;;;17.80;69.10;;;;;;4991640;28;20457;-76
2023/01/07 02:46:09;;;;;;;5.17;4.67;;;17.80;69.40;;;;;;4991256;28;20477;-77
2023/01/07 02:48:38;;;;;;;5.90;5.30;;;17.90;69.30;;;;;;4986983;28;20449;-77
2023/01/07 02:51:06;;;;;;;5.40;4.90;;;17.80;69.40;;;;;;4990510;28;21027;-76
2023/01/07 02:53:34;;;;;;;5.17;4.70;;;17.90;69.30;;;;;;4989472;28;20469;-78
2023/01/07 02:56:10;;;;;;;5.07;4.60;;;17.90;69.30;;;;;;4985883;28;20485;-77
2023/01/07 02:58:49;;;;;;;4.87;4.53;;;17.90;69.50;;;;;;4986177;28;20456;-76
2023/01/07 03:01:28;;;;;;;4.47;4.07;;;17.90;69.30;;;;;;4990975;28;20477;-77
2023/01/07 03:04:05;;;;;;;5.03;4.63;;;17.90;69.30;;;;;;4984187;28;20541;-76
2023/01/07 03:06:41;;;;;;;5.37;4.83;;;17.90;69.40;;;;;;4990379;28;20541;-76
2023/01/07 03:09:11;;;;;;;5.27;4.80;;;17.90;69.40;;;;;;4988668;28;20457;-77
2023/01/07 03:11:42;;;;;;;4.67;4.27;;;17.90;69.30;;;;;;4986000;28;21003;-77
2023/01/07 03:14:11;;;;;;;4.60;4.30;;;17.90;69.40;;;;;;4989550;28;20449;-77
2023/01/07 03:16:41;;;;;;;5.43;5.00;;;17.90;69.30;;;;;;4990585;28;20453;-77
2023/01/07 03:19:14;;;;;;;5.47;4.97;;;17.90;69.40;;;;;;4990925;28;20464;-77
2023/01/07 03:21:43;;;;;;;5.27;4.77;;;17.90;69.30;;;;;;4998302;28;20475;-76
2023/01/07 03:24:10;;;;;;;5.40;5.00;;;17.90;69.50;;;;;;4995350;28;20503;-76
2023/01/07 03:26:39;;;;;;;5.53;5.03;;;17.90;69.40;;;;;;4990249;28;20629;-76
2023/01/07 03:29:08;;;;;;;6.30;5.70;;;18.00;69.50;;;;;;4989865;28;20461;-76
2023/01/07 03:31:36;;;;;;;7.10;5.27;;;17.90;69.40;;;;;;4987840;28;20477;-77
2023/01/07 03:34:06;;;;;;;6.47;5.70;;;18.00;69.60;;;;;;4990292;28;20932;-76
2023/01/07 03:36:37;;;;;;;5.83;5.33;;;18.00;69.70;;;;;;4991278;28;20452;-76
2023/01/07 03:39:05;;;;;;;6.37;5.63;;;18.00;69.60;;;;;;4988925;28;20458;-77
2023/01/07 03:44:30;;;;;;;8.20;6.10;;;18.00;69.60;;;;;;4962567;28;20461;-76
2023/01/07 03:46:58;;;;;;;5.63;5.13;;;18.00;69.70;;;;;;4979751;28;20470;-78
2023/01/07 03:49:26;;;;;;;6.40;5.80;;;18.00;69.80;;;;;;4988266;28;20456;-76
2023/01/07 03:51:55;;;;;;;7.00;5.70;;;18.00;69.70;;;;;;4986708;28;20479;-77
2023/01/07 03:54:24;;;;;;;6.43;5.83;;;18.00;69.60;;;;;;4988620;28;20457;-77
2023/01/07 03:56:52;;;;;;;6.27;5.50;;;18.00;69.70;;;;;;4991466;28;20454;-76
2023/01/07 03:59:20;;;;;;;6.17;5.57;;;18.00;69.80;;;;;;4990075;28;20457;-77
2023/01/07 04:01:48;;;;;;;6.87;5.90;;;18.00;69.70;;;;;;4974731;28;20884;-77
2023/01/07 04:04:16;;;;;;;6.20;5.60;;;18.00;69.80;;;;;;4977258;28;20516;-77
2023/01/07 04:06:44;;;;;;;7.93;5.47;;;18.00;69.90;;;;;;4980019;28;20474;-77
2023/01/07 04:09:14;;;;;;;5.50;5.10;;;18.00;69.90;;;;;;4981014;28;20457;-77
2023/01/07 04:11:42;;;;;;;6.27;5.67;;;18.00;69.80;;;;;;4992679;28;20484;-77
2023/01/07 04:14:10;;;;;;;6.20;5.63;;;18.00;69.90;;;;;;4991884;28;20827;-77
2023/01/07 04:16:37;;;;;;;6.20;5.60;;;18.00;69.80;;;;;;4989305;28;20448;-77
2023/01/07 04:19:05;;;;;;;5.70;5.20;;;18.10;69.80;;;;;;4994002;28;20532;-77
2023/01/07 04:21:33;;;;;;;5.67;4.90;;;18.10;69.90;;;;;;4987418;28;20486;-77
2023/01/07 04:24:01;;;;;;;5.40;4.90;;;18.10;69.80;;;;;;4990056;28;20456;-77
2023/01/07 04:26:32;;;;;;;5.47;4.97;;;18.10;69.90;;;;;;4986208;28;20457;-78
2023/01/07 04:29:00;;;;;;;5.40;5.00;;;18.10;69.90;;;;;;4989106;28;20453;-77
2023/01/07 04:31:28;;;;;;;5.70;5.10;;;18.10;69.90;;;;;;4992521;28;20469;-77
2023/01/07 04:33:55;;;;;;;5.10;4.70;;;18.10;70.00;;;;;;4993852;28;20453;-76
2023/01/07 04:36:23;;;;;;;8.20;5.17;;;18.10;69.90;;;;;;4992152;28;20457;-76
2023/01/07 04:38:51;;;;;;;5.20;4.80;;;18.10;70.00;;;;;;4988798;28;20452;-77
2023/01/07 04:41:19;;;;;;;5.17;4.77;;;18.10;70.00;;;;;;4993690;28;20505;-77
2023/01/07 04:43:48;;;;;;;5.83;5.07;;;18.10;69.90;;;;;;4987480;28;20449;-77
2023/01/07 04:46:15;;;;;;;5.87;4.70;;;18.10;69.90;;;;;;4992833;28;20461;-77
2023/01/07 04:48:44;;;;;;;5.10;4.60;;;18.10;70.00;;;;;;4987799;28;20477;-76
2023/01/07 04:51:11;;;;;;;5.17;4.67;;;18.10;70.10;;;;;;4981378;28;20472;-77
2023/01/07 04:53:39;;;;;;;6.80;4.73;;;18.20;70.20;;;;;;4987459;28;20452;-77
2023/01/07 04:56:07;;;;;;;4.73;4.33;;;18.20;70.00;;;;;;4986688;28;20453;-77
2023/01/07 04:58:35;;;;;;;5.50;5.00;;;18.20;70.20;;;;;;4989456;28;20442;-77
2023/01/07 05:01:05;;;;;;;4.80;4.40;;;18.20;69.80;;;;;;4980289;28;20478;-76
2023/01/07 05:03:34;;;;;;;4.77;4.37;;;18.20;70.00;;;;;;4988345;28;20446;-77
2023/01/07 05:06:02;;;;;;;7.97;4.47;;;18.20;70.10;;;;;;4983372;28;20525;-77
2023/01/07 05:08:30;;;;;;;4.77;4.37;;;18.20;69.90;;;;;;4980744;28;20473;-77
2023/01/07 05:10:58;;;;;;;4.40;4.00;;;18.20;70.00;;;;;;4984539;28;20481;-76
2023/01/07 05:13:26;;;;;;;4.67;4.30;;;18.20;70.00;;;;;;4992074;28;20468;-76
2023/01/07 05:15:54;;;;;;;4.50;4.20;;;18.20;69.80;;;;;;4988291;28;20464;-76
2023/01/07 05:18:23;;;;;;;5.23;4.77;;;18.20;70.50;;;;;;4993269;28;20450;-76
2023/01/07 05:20:50;;;;;;;4.63;4.27;;;18.20;70.00;;;;;;4981943;28;20485;-78
2023/01/07 05:23:18;;;;;;;4.73;4.33;;;18.20;70.00;;;;;;4984751;28;20480;-76
2023/01/07 05:25:47;;;;;;;4.40;4.00;;;18.20;70.20;;;;;;4984437;28;20457;-76
2023/01/07 05:28:14;;;;;;;5.07;4.00;;;18.20;70.10;;;;;;4985654;28;20477;-76
2023/01/07 05:30:42;;;;;;;5.33;4.67;;;18.20;70.10;;;;;;4986751;28;20485;-75
2023/01/07 05:33:10;;;;;;;4.83;4.33;;;18.20;70.10;;;;;;4979553;28;20458;-76
2023/01/07 05:35:40;;;;;;;4.43;4.13;;;18.20;70.00;;;;;;4985566;28;20461;-76
2023/01/07 05:38:07;;;;;;;4.47;4.07;;;18.20;70.00;;;;;;4987909;28;20448;-76
2023/01/07 05:40:36;;;;;;;4.97;4.57;;;18.20;70.10;;;;;;4990565;28;20480;-76
2023/01/07 05:43:03;;;;;;;4.10;3.80;;;18.20;70.00;;;;;;4991095;28;20456;-75
2023/01/07 05:45:31;;;;;;;5.00;4.60;;;18.20;70.10;;;;;;4978140;28;20469;-75
2023/01/07 05:47:59;;;;;;;5.67;4.40;;;18.20;70.00;;;;;;4978381;28;20474;-76
2023/01/07 05:50:27;;;;;;;5.10;4.10;;;18.20;70.10;;;;;;4988582;28;20473;-76
2023/01/07 05:52:56;;;;;;;4.70;4.40;;;18.20;70.10;;;;;;4986876;28;20460;-76
2023/01/07 05:55:24;;;;;;;5.07;4.33;;;18.20;70.10;;;;;;4986586;28;20457;-76
2023/01/07 05:57:52;;;;;;;4.33;4.03;;;18.20;70.10;;;;;;4981893;28;20450;-76
2023/01/07 06:00:20;;;;;;;4.50;4.10;;;18.20;70.00;;;;;;4985077;28;20471;-75
2023/01/07 06:02:48;;;;;;;4.60;4.23;;;18.30;70.10;;;;;;4982072;28;20454;-76
2023/01/07 06:05:16;;;;;;;4.27;4.03;;;18.20;70.70;;;;;;4984350;28;20485;-76
2023/01/07 06:07:44;;;;;;;4.40;4.10;;;18.20;70.00;;;;;;4989864;28;20472;-76
2023/01/07 06:10:14;;;;;;;4.47;4.13;;;18.20;70.00;;;;;;4979792;28;20484;-76
2023/01/07 06:12:42;;;;;;;4.40;4.10;;;18.30;70.10;;;;;;4986995;28;20543;-76
2023/01/07 06:15:11;;;;;;;4.60;4.20;;;18.30;70.20;;;;;;4987464;28;20500;-76
2023/01/07 06:17:39;;;;;;;5.20;4.70;;;18.30;70.20;;;;;;4989859;28;20469;-77
2023/01/07 06:20:08;;;;;;;4.40;4.00;;;18.30;70.10;;;;;;4981568;28;20514;-76
2023/01/07 06:22:35;;;;;;;4.37;3.97;;;18.30;70.30;;;;;;4983199;28;20532;-77
2023/01/07 06:25:04;;;;;;;4.47;4.17;;;18.20;70.10;;;;;;4991615;28;20434;-77
2023/01/07 06:27:33;;;;;;;3.90;3.60;;;18.20;70.20;;;;;;4993946;28;20445;-76
2023/01/07 06:30:03;;;;;;;4.47;4.17;;;18.30;70.10;;;;;;4991955;28;20477;-76
2023/01/07 06:32:30;;;;;;;4.27;3.87;;;18.30;70.20;;;;;;4986122;28;20940;-76
2023/01/07 06:34:59;;;;;;;4.27;3.97;;;18.20;70.10;;;;;;4988307;28;20724;-76
2023/01/07 06:37:27;;;;;;;4.30;4.00;;;18.30;70.30;;;;;;4990363;28;20458;-76
2023/01/07 06:39:57;;;;;;;4.27;3.97;;;18.30;70.10;;;;;;4984648;28;20453;-76
2023/01/07 06:42:24;;;;;;;4.50;4.10;;;18.30;70.10;;;;;;4990236;28;20461;-76
2023/01/07 06:44:54;;;;;;;3.67;3.43;;;18.30;70.00;;;;;;4986220;28;20465;-77
2023/01/07 06:47:22;;;;;;;4.50;4.10;;;18.30;70.20;;;;;;4993492;28;20492;-77
2023/01/07 06:49:50;;;;;;;4.00;3.70;;;18.30;70.10;;;;;;4994777;28;20988;-77
2023/01/07 06:52:18;;;;;;;5.00;4.60;;;18.30;70.10;;;;;;4990016;28;20457;-77
2023/01/07 06:54:45;;;;;;;4.50;4.13;;;18.30;70.20;;;;;;4990009;28;20464;-76
2023/01/07 06:57:15;;;;;;;3.80;3.50;;;18.30;70.10;;;;;;4993705;28;20438;-76
2023/01/07 06:59:43;;;;;;;4.07;3.77;;;18.30;70.10;;;;;;4993164;28;20437;-76
2023/01/07 07:02:16;;;;;;;3.97;3.53;;;18.30;70.20;;;;;;4984658;28;20496;-76
2023/01/07 07:04:44;;;;;;;6.57;3.73;;;18.30;70.10;;;;;;4984956;28;20449;-77
2023/01/07 07:07:12;;;;;;;3.80;3.50;;;18.30;70.10;;;;;;4989338;28;20449;-76
2023/01/07 07:09:40;;;;;;;4.00;3.63;;;18.30;70.00;;;;;;4983649;28;20485;-76
2023/01/07 07:12:08;;;;;;;3.90;3.60;;;18.30;70.10;;;;;;4992707;28;20461;-76
2023/01/07 07:14:36;;;;;;;3.90;3.60;;;18.30;70.00;;;;;;4985281;28;20461;-77
2023/01/07 07:17:03;;;;;;;3.93;3.67;;;18.30;70.00;;;;;;4976644;28;20466;-76
2023/01/07 07:19:32;;;;;;;3.87;3.57;;;18.30;70.10;;;;;;4987142;28;20452;-76
2023/01/07 07:22:00;;;;;;;3.97;3.67;;;18.30;69.90;;;;;;4990258;28;20472;-77
2023/01/07 07:24:31;;;;;;;3.87;3.57;;;18.30;70.00;;;;;;4977964;28;21027;-76
2023/01/07 07:26:59;;;;;;;3.90;3.60;;;18.30;70.00;;;;;;4976186;28;20524;-76
2023/01/07 07:29:27;;;;;;;4.00;3.30;;;18.30;69.90;;;;;;4979825;28;20484;-76
2023/01/07 07:31:55;;;;;;;3.83;3.63;;;18.30;69.90;;;;;;4986671;28;20481;-77
2023/01/07 07:34:24;;;;;;;3.70;3.43;;;18.30;69.90;;;;;;4978276;28;20453;-76
2023/01/07 07:36:53;;;;;;;4.00;3.70;;;18.30;70.00;;;;;;4991056;28;20453;-77
2023/01/07 07:39:20;;;;;;;3.90;3.60;;;18.30;69.90;;;;;;4988417;28;20449;-78
2023/01/07 07:41:48;;;;;;;4.00;3.73;;;18.30;69.90;;;;;;4980699;28;20474;-76
2023/01/07 07:44:17;;;;;;;3.93;3.47;;;18.40;70.00;;;;;;4977728;28;20466;-76
2023/01/07 07:46:44;;;;;;;3.63;3.40;;;18.30;69.90;;;;;;4990598;28;20454;-76
2023/01/07 07:49:13;;;;;;;3.73;3.53;;;18.30;69.90;;;;;;4992806;28;20529;-76
2023/01/07 07:51:41;;;;;;;3.90;3.60;;;18.30;69.80;;;;;;4992628;28;20480;-77
2023/01/07 07:54:10;;;;;;;4.03;3.60;;;18.30;69.90;;;;;;4983439;28;20453;-76
2023/01/07 07:56:38;;;;;;;3.83;3.43;;;18.30;69.90;;;;;;4991888;28;20449;-76
2023/01/07 07:59:06;;;;;;;4.10;3.70;;;18.30;69.90;;;;;;4988672;28;20453;-77
2023/01/07 08:01:33;;;;;;;4.53;4.00;;;18.30;69.80;;;;;;4987711;28;20473;-76
2023/01/07 08:04:04;;;;;;;4.43;4.07;;;18.40;70.00;;;;;;4988062;28;20454;-76
2023/01/07 08:06:33;;;;;;;4.30;4.00;;;18.40;69.80;;;;;;4990464;28;20465;-75
2023/01/07 08:09:01;;;;;;;4.67;4.10;;;18.30;69.80;;;;;;4986813;28;20474;-77
2023/01/07 08:11:30;;;;;;;4.70;4.30;;;18.40;69.90;;;;;;4985904;28;20488;-76
2023/01/07 08:13:58;;;;;;;3.77;3.30;;;18.40;69.90;;;;;;4993012;28;20465;-76
2023/01/07 08:16:26;;;;;;;3.70;3.50;;;18.40;70.00;;;;;;4986685;28;20473;-76
2023/01/07 08:18:54;;;;;;;4.10;3.80;;;18.40;69.90;;;;;;4986300;28;20547;-76
2023/01/07 08:21:23;;;;;;;3.80;3.60;;;18.40;70.00;;;;;;4990630;28;20473;-76
2023/01/07 08:23:51;;;;;;;3.40;3.20;;;18.40;69.90;;;;;;4986874;28;20453;-76
2023/01/07 08:26:19;;;;;;;3.97;3.63;;;18.40;69.80;;;;;;4987162;28;20472;-76
2023/01/07 08:28:48;;;;;;;4.10;3.80;;;18.40;69.60;;;;;;4991068;28;20462;-77
2023/01/07 08:31:16;;;;;;;2.97;2.80;;;18.40;69.70;;;;;;4983952;28;20474;-76
2023/01/07 08:33:45;;;;;;;3.73;3.43;;;18.50;69.80;;;;;;4985916;28;20488;-76
2023/01/07 08:36:12;;;;;;;3.73;3.43;;;18.50;69.80;;;;;;4990542;28;20453;-75
2023/01/07 08:38:51;;;;;;;4.00;3.70;;;18.50;69.70;;;;;;4986991;28;20450;-76
2023/01/07 08:41:19;;;;;;;3.97;3.57;;;18.50;69.80;;;;;;4987347;28;20472;-76
2023/01/07 08:43:49;;;;;;;6.37;4.00;;;18.50;69.80;;;;;;4989076;28;20460;-75
2023/01/07 08:46:17;;;;;;;3.63;3.33;;;18.50;69.70;;;;;;4984468;28;20454;-76
2023/01/07 08:48:45;;;;;;;3.73;3.43;;;18.50;69.70;;;;;;4985648;28;20453;-76
2023/01/07 08:51:12;;;;;;;4.10;3.87;;;18.50;69.70;;;;;;4987297;28;20489;-75
2023/01/07 08:53:40;;;;;;;4.20;3.80;;;18.50;69.70;;;;;;4981262;28;20940;-76
2023/01/07 08:56:08;;;;;;;4.13;3.80;;;18.60;69.70;;;;;;4991825;28;20455;-77
2023/01/07 08:58:37;;;;;;;4.03;3.73;;;18.60;69.40;;;;;;4989455;28;20449;-76
2023/01/07 09:01:07;;;;;;;5.50;3.80;;;18.70;69.50;;;;;;4984972;28;20511;-76
2023/01/07 09:03:35;;;;;;;4.27;3.63;;;18.70;69.40;;;;;;4990156;28;20519;-76
2023/01/07 09:06:02;;;;;;;3.90;3.03;;;18.70;69.40;;;;;;4991950;28;20470;-76
2023/01/07 09:08:30;;;;;;;3.33;3.10;;;18.80;69.30;;;;;;4987143;28;20456;-76
2023/01/07 09:10:58;;;;;;;3.37;3.17;;;18.80;69.20;;;;;;4991410;28;20456;-77
2023/01/07 09:13:26;;;;;;;4.10;3.70;;;18.80;69.10;;;;;;4986341;28;20949;-76
2023/01/07 09:15:54;;;;;;;4.70;3.23;;;18.90;69.20;;;;;;4986528;28;20450;-76
2023/01/07 09:18:23;;;;;;;3.30;3.07;;;18.90;69.20;;;;;;4984923;28;20453;-76
2023/01/07 09:20:50;;;;;;;4.20;3.80;;;18.90;68.90;;;;;;4989295;28;20473;-76
2023/01/07 09:23:18;;;;;;;3.27;3.07;;;19.00;68.80;;;;;;4989526;28;20476;-76
2023/01/07 09:25:46;;;;;;;3.97;3.67;;;18.90;68.90;;;;;;4986069;28;20477;-76
2023/01/07 09:28:14;;;;;;;2.97;2.77;;;19.00;68.80;;;;;;4989011;28;20457;-76
2023/01/07 09:30:42;;;;;;;3.70;3.40;;;19.00;68.60;;;;;;4984995;28;20488;-76
2023/01/07 09:33:10;;;;;;;7.93;3.10;;;19.00;68.40;;;;;;4990974;28;20457;-76
2023/01/07 09:35:40;;;;;;;4.00;3.63;;;19.00;68.50;;;;;;4985029;28;20460;-75
2023/01/07 09:38:08;;;;;;;4.27;3.10;;;19.00;68.30;;;;;;4981392;28;20461;-76
2023/01/07 09:40:37;;;;;;;3.83;3.57;;;19.00;68.40;;;;;;4986713;28;20828;-75
2023/01/07 09:43:07;;;;;;;3.00;2.80;;;19.00;68.40;;;;;;4990237;28;20464;-76
2023/01/07 09:45:37;;;;;;;3.13;2.93;;;19.00;68.60;;;;;;4980566;28;20458;-75
2023/01/07 09:48:06;;;;;;;2.83;2.63;;;19.00;68.40;;;;;;4989999;28;20453;-76
2023/01/07 09:50:45;;;;;;;3.10;2.80;;;19.10;68.40;;;;;;4986029;28;20476;-76
2023/01/07 09:53:14;;;;;;;3.00;2.80;;;19.10;68.20;;;;;;4990108;28;20573;-76
2023/01/07 09:55:42;;;;;;;2.23;2.13;;;19.10;68.30;;;;;;4983540;28;20827;-76
2023/01/07 09:58:30;;;;;;;3.67;2.60;;;19.20;68.20;;;;;;4986029;28;20859;-77
2023/01/07 10:01:02;;;;;;;2.53;2.40;;;19.10;68.00;;;;;;4987078;28;20523;-77
2023/01/07 10:03:40;;;;;;;3.90;2.20;;;19.10;68.10;;;;;;4987943;28;20533;-76
2023/01/07 10:06:12;;;;;;;2.87;2.70;;;19.20;68.10;;;;;;4984474;28;20452;-76
2023/01/07 10:08:45;;;;;;;2.37;2.20;;;19.20;68.00;;;;;;4988976;28;20461;-76
2023/01/07 10:11:17;;;;;;;2.80;2.03;;;19.20;68.00;;;;;;4989919;28;20488;-77
2023/01/07 10:13:59;;;;;;;3.17;2.20;;;19.20;68.10;;;;;;4989524;28;20453;-76
2023/01/07 10:16:30;;;;;;;2.47;2.20;;;19.30;67.90;;;;;;4983171;28;20453;-76
2023/01/07 10:19:00;;;;;;;2.00;1.90;;;19.30;68.10;;;;;;4987829;28;20484;-76
2023/01/07 10:21:36;;;;;;;1.80;1.70;;;19.30;67.80;;;;;;4990373;28;20469;-76
2023/01/07 10:24:08;;;;;;;2.10;2.00;;;19.30;67.50;;;;;;4980282;28;20971;-77
2023/01/07 10:26:38;;;;;;;2.00;1.90;;;19.40;67.60;;;;;;4981327;28;20469;-76
2023/01/07 10:29:08;;;;;;;2.30;2.10;;;19.40;67.50;;;;;;4982298;28;20480;-76
2023/01/07 10:31:35;;;;;;;1.50;1.50;;;19.40;67.40;;;;;;4989170;28;20551;-76
2023/01/07 10:34:06;;;;;;;2.20;1.60;;;19.40;68.10;;;;;;4987460;28;20535;-77
2023/01/07 10:36:38;;;;;;;2.67;1.73;;;19.40;67.30;;;;;;4988028;28;20461;-76
2023/01/07 10:39:13;;;;;;;1.87;1.77;;;19.40;67.40;;;;;;4988082;28;20456;-76
2023/01/07 10:41:45;;;;;;;3.93;1.97;;;19.40;67.30;;;;;;4991083;28;20461;-76
2023/01/07 10:44:44;;;;;;;1.93;1.83;;;19.50;67.30;;;;;;4990828;28;20456;-75
2023/01/07 10:47:16;;;;;;;2.07;1.93;;;19.60;67.00;;;;;;4993457;28;20425;-76
2023/01/07 10:49:53;;;;;;;1.50;1.50;;;19.60;67.00;;;;;;4993240;28;20453;-76
2023/01/07 10:52:31;;;;;;;1.60;1.50;;;19.60;66.70;;;;;;4993077;28;20465;-76
2023/01/07 10:55:27;;;;;;;2.60;1.70;;;19.60;66.60;;;;;;4991713;28;21007;-76
2023/01/07 10:57:55;;;;;;;2.27;1.60;;;19.60;66.50;;;;;;4988402;28;20437;-76
2023/01/07 11:00:24;;;;;;;1.43;1.30;;;19.60;66.50;;;;;;4992806;28;20478;-76
2023/01/07 11:02:54;;;;;;;1.50;1.40;;;19.60;66.60;;;;;;4993213;28;20449;-77
2023/01/07 11:05:23;;;;;;;1.70;1.60;;;19.60;66.20;;;;;;5003144;28;20451;-76
2023/01/07 11:07:54;;;;;;;1.67;1.53;;;19.60;66.30;;;;;;4996852;28;20952;-76
2023/01/07 11:10:23;;;;;;;1.83;1.73;;;19.60;66.40;;;;;;4992812;28;20461;-76
2023/01/07 11:12:52;;;;;;;1.70;1.60;;;19.60;66.40;;;;;;4992093;28;20464;-76
2023/01/07 11:15:22;;;;;;;3.03;1.50;;;19.60;66.30;;;;;;4992960;28;20441;-76
2023/01/07 11:17:52;;;;;;;1.70;1.60;;;19.60;66.20;;;;;;4992888;28;20445;-76
2023/01/07 11:20:41;;;;;;;2.30;1.63;;;19.50;66.20;;;;;;4992806;28;20469;-75
2023/01/07 11:23:30;;;;;;;1.53;1.43;;;19.60;66.10;;;;;;4992930;28;20445;-76
2023/01/07 11:26:23;;;;;;;1.60;1.50;;;19.50;66.00;;;;;;4993279;28;20452;-76
2023/01/07 11:28:52;;;;;;;1.67;1.57;;;19.50;66.00;;;;;;4982058;28;20451;-75
2023/01/07 11:31:20;;;;;;;1.90;1.80;;;19.50;66.20;;;;;;4982962;28;20473;-76
2023/01/07 11:33:49;;;;;;;1.57;1.50;;;19.50;66.20;;;;;;4992829;28;20471;-76
2023/01/07 11:36:40;;;;;;;1.70;1.60;;;19.40;66.10;;;;;;4992478;28;20433;-76
2023/01/07 11:39:18;;;;;;;2.40;1.50;;;19.40;66.00;;;;;;4992386;28;20433;-76
2023/01/07 11:41:54;;;;;;;1.40;1.30;;;19.40;66.80;;;;;;4988403;28;20469;-76
2023/01/07 11:44:22;;;;;;;1.60;1.50;;;19.40;65.90;;;;;;4991231;28;20444;-77
2023/01/07 11:46:50;;;;;;;1.70;1.47;;;19.30;65.80;;;;;;4984640;28;20457;-75
2023/01/07 11:49:24;;;;;;;1.60;1.50;;;19.30;66.10;;;;;;4982655;28;20449;-75
2023/01/07 11:51:52;;;;;;;1.60;1.47;;;19.40;66.10;;;;;;4998279;28;20483;-76
2023/01/07 11:54:22;;;;;;;1.70;1.60;;;19.30;66.10;;;;;;5008788;28;20492;-76
2023/01/07 11:56:50;;;;;;;1.57;1.47;;;19.40;66.00;;;;;;4992402;28;20460;-76
2023/01/07 11:59:27;;;;;;;3.03;1.67;;;19.40;65.70;;;;;;4991664;28;20445;-76
2023/01/07 12:01:58;;;;;;;1.10;1.10;;;19.50;65.70;;;;;;4977016;28;20476;-76
2023/01/07 12:04:27;;;;;;;1.83;1.73;;;19.50;65.50;;;;;;4983740;28;20445;-76
2023/01/07 12:06:56;;;;;;;1.50;1.40;;;19.50;65.20;;;;;;4992152;28;20465;-76
2023/01/07 12:09:28;;;;;;;1.70;1.60;;;19.50;64.90;;;;;;4992256;28;20453;-76
2023/01/07 12:11:57;;;;;;;1.20;1.10;;;19.50;64.90;;;;;;5004697;28;20476;-76
2023/01/07 12:14:27;;;;;;;3.57;1.60;;;19.50;64.70;;;;;;4998397;28;20450;-76
2023/01/07 12:16:55;;;;;;;1.77;1.30;;;19.50;64.70;;;;;;4991541;28;20437;-76
2023/01/07 12:19:30;;;;;;;1.30;1.20;;;19.40;64.70;;;;;;4989197;28;20475;-77
2023/01/07 12:22:05;;;;;;;1.37;1.30;;;19.40;64.70;;;;;;4991395;28;20484;-76
2023/01/07 12:24:45;;;;;;;1.40;1.40;;;19.40;64.60;;;;;;4992008;28;20449;-76
2023/01/07 12:27:22;;;;;;;6.00;1.53;;;19.40;64.50;;;;;;4991914;28;20444;-76
2023/01/07 12:29:57;;;;;;;1.53;1.27;;;19.40;64.40;;;;;;4983973;28;20444;-76
2023/01/07 12:32:32;;;;;;;1.27;1.27;;;19.40;64.50;;;;;;4993279;28;20477;-78
2023/01/07 12:35:01;;;;;;;1.40;1.30;;;19.50;65.30;;;;;;4995475;28;20436;-77
2023/01/07 12:37:43;;;;;;;1.33;1.23;;;19.40;64.40;;;;;;4983781;28;20440;-76
2023/01/07 12:40:19;;;;;;;1.40;1.30;;;19.40;64.30;;;;;;4994896;28;20455;-76
2023/01/07 12:42:50;;;;;;;2.00;1.40;;;19.40;64.10;;;;;;4994388;28;20444;-76
2023/01/07 12:45:21;;;;;;;1.43;1.43;;;19.40;64.20;;;;;;4995393;28;20429;-76
2023/01/07 12:47:51;;;;;;;2.37;1.47;;;19.40;64.00;;;;;;4990680;28;20456;-76
2023/01/07 12:50:23;;;;;;;1.90;1.27;;;19.40;64.00;;;;;;4993997;28;20479;-76
2023/01/07 12:52:52;;;;;;;1.20;1.20;;;19.40;63.70;;;;;;4989561;28;20475;-76
2023/01/07 12:55:22;;;;;;;4.87;1.10;;;19.40;63.70;;;;;;4983605;28;20433;-76
2023/01/07 12:57:58;;;;;;;1.40;1.20;;;19.40;63.70;;;;;;4994801;28;20453;-76
2023/01/07 13:00:27;;;;;;;1.20;1.10;;;19.50;63.80;;;;;;4990350;28;20479;-76
2023/01/07 13:02:58;;;;;;;1.50;1.40;;;19.40;63.70;;;;;;4992988;28;20817;-77
2023/01/07 13:05:27;;;;;;;1.97;1.23;;;19.50;63.90;;;;;;4994798;28;20456;-76
2023/01/07 13:07:56;;;;;;;1.47;1.37;;;19.40;63.70;;;;;;4995098;28;20441;-76